sensor_id;sensor_type;location;lat;lon;timestamp;temperature;humidity
17815;DHT22;9031;50.974;11.330;2023-10-31T00:00:06;12.60;99.90
17815;DHT22;9031;50.974;11.330;2023-10-31T00:02:37;12.70;99.90
17815;DHT22;9031;50.974;11.330;2023-10-31T00:05:03;12.60;99.90
17815;DHT22;9031;50.974;11.330;2023-10-31T00:07:28;12.70;99.90
17815;DHT22;9031;50.974;11.330;2023-10-31T00:09:54;12.80;99.90
17815;DHT22;9031;50.974;11.330;2023-10-31T00:12:20;12.70;99.90
17815;DHT22;9031;50.974;11.330;2023-10-31T00:14:45;12.70;99.90
17815;DHT22;9031;50.974;11.330;2023-10-31T00:17:11;12.60;99.90
17815;DHT22;9031;50.974;11.330;2023-10-31T00:19:36;12.70;99.90
17815;DHT22;9031;50.974;11.330;2023-10-31T00:22:03;12.70;99.90
17815;DHT22;9031;50.974;11.330;2023-10-31T00:24:28;12.60;99.90
17815;DHT22;9031;50.974;11.330;2023-10-31T00:26:54;12.60;99.90
17815;DHT22;9031;50.974;11.330;2023-10-31T00:29:19;12.50;99.90
17815;DHT22;9031;50.974;11.330;2023-10-31T00:31:45;12.60;99.90
17815;DHT22;9031;50.974;11.330;2023-10-31T00:34:10;12.60;99.90
17815;DHT22;9031;50.974;11.330;2023-10-31T00:36:36;12.60;99.90
17815;DHT22;9031;50.974;11.330;2023-10-31T00:39:01;12.60;99.90
17815;DHT22;9031;50.974;11.330;2023-10-31T00:41:27;12.50;99.90
17815;DHT22;9031;50.974;11.330;2023-10-31T00:43:52;12.60;99.90
17815;DHT22;9031;50.974;11.330;2023-10-31T00:46:18;12.60;99.90
17815;DHT22;9031;50.974;11.330;2023-10-31T00:48:43;12.70;99.90
17815;DHT22;9031;50.974;11.330;2023-10-31T00:51:09;12.60;99.90
17815;DHT22;9031;50.974;11.330;2023-10-31T00:53:34;12.50;99.90
17815;DHT22;9031;50.974;11.330;2023-10-31T00:56:00;12.50;99.90
17815;DHT22;9031;50.974;11.330;2023-10-31T00:58:25;12.40;99.90
17815;DHT22;9031;50.974;11.330;2023-10-31T01:00:51;12.50;99.90
17815;DHT22;9031;50.974;11.330;2023-10-31T01:03:16;12.50;99.90
17815;DHT22;9031;50.974;11.330;2023-10-31T01:05:42;12.50;99.90
17815;DHT22;9031;50.974;11.330;2023-10-31T01:08:07;12.50;99.90
17815;DHT22;9031;50.974;11.330;2023-10-31T01:10:33;12.50;99.90
17815;DHT22;9031;50.974;11.330;2023-10-31T01:12:58;12.50;99.90
17815;DHT22;9031;50.974;11.330;2023-10-31T01:15:24;12.50;99.90
17815;DHT22;9031;50.974;11.330;2023-10-31T01:17:49;12.50;99.90
17815;DHT22;9031;50.974;11.330;2023-10-31T01:20:15;12.50;99.90
17815;DHT22;9031;50.974;11.330;2023-10-31T01:22:40;12.40;99.90
17815;DHT22;9031;50.974;11.330;2023-10-31T01:25:06;12.50;99.90
17815;DHT22;9031;50.974;11.330;2023-10-31T01:27:32;12.40;99.90
17815;DHT22;9031;50.974;11.330;2023-10-31T01:29:57;12.40;99.90
17815;DHT22;9031;50.974;11.330;2023-10-31T01:32:23;12.50;99.90
17815;DHT22;9031;50.974;11.330;2023-10-31T01:34:49;12.50;99.90
17815;DHT22;9031;50.974;11.330;2023-10-31T01:37:14;12.50;99.90
17815;DHT22;9031;50.974;11.330;2023-10-31T01:39:40;12.50;99.90
17815;DHT22;9031;50.974;11.330;2023-10-31T01:42:06;12.50;99.90
17815;DHT22;9031;50.974;11.330;2023-10-31T01:44:31;12.50;99.90
17815;DHT22;9031;50.974;11.330;2023-10-31T01:46:57;12.50;99.90
17815;DHT22;9031;50.974;11.330;2023-10-31T01:49:22;12.50;99.90
17815;DHT22;9031;50.974;11.330;2023-10-31T01:51:48;12.50;99.90
17815;DHT22;9031;50.974;11.330;2023-10-31T01:54:14;12.60;99.90
17815;DHT22;9031;50.974;11.330;2023-10-31T01:56:40;12.60;99.90
17815;DHT22;9031;50.974;11.330;2023-10-31T01:59:06;12.60;99.90
17815;DHT22;9031;50.974;11.330;2023-10-31T02:01:38;12.50;99.90
17815;DHT22;9031;50.974;11.330;2023-10-31T02:04:05;12.40;99.90
17815;DHT22;9031;50.974;11.330;2023-10-31T02:06:31;12.50;99.90
17815;DHT22;9031;50.974;11.330;2023-10-31T02:08:56;12.50;99.90
17815;DHT22;9031;50.974;11.330;2023-10-31T02:11:22;12.50;99.90
17815;DHT22;9031;50.974;11.330;2023-10-31T02:13:48;12.40;99.90
17815;DHT22;9031;50.974;11.330;2023-10-31T02:16:13;12.40;99.90
17815;DHT22;9031;50.974;11.330;2023-10-31T02:18:39;12.40;99.90
17815;DHT22;9031;50.974;11.330;2023-10-31T02:21:04;12.40;99.90
17815;DHT22;9031;50.974;11.330;2023-10-31T02:23:30;12.40;99.90
17815;DHT22;9031;50.974;11.330;2023-10-31T02:25:56;12.40;99.90
17815;DHT22;9031;50.974;11.330;2023-10-31T02:28:21;12.40;99.90
17815;DHT22;9031;50.974;11.330;2023-10-31T02:30:47;12.40;99.90
17815;DHT22;9031;50.974;11.330;2023-10-31T02:33:12;12.40;99.90
17815;DHT22;9031;50.974;11.330;2023-10-31T02:35:38;12.40;99.90
17815;DHT22;9031;50.974;11.330;2023-10-31T02:38:03;12.40;99.90
17815;DHT22;9031;50.974;11.330;2023-10-31T02:40:29;12.40;99.90
17815;DHT22;9031;50.974;11.330;2023-10-31T02:42:54;12.40;99.90
17815;DHT22;9031;50.974;11.330;2023-10-31T02:45:20;12.50;99.90
17815;DHT22;9031;50.974;11.330;2023-10-31T02:47:45;12.40;99.90
17815;DHT22;9031;50.974;11.330;2023-10-31T02:50:11;12.40;99.90
17815;DHT22;9031;50.974;11.330;2023-10-31T02:52:36;12.40;99.90
17815;DHT22;9031;50.974;11.330;2023-10-31T02:55:02;12.40;99.90
17815;DHT22;9031;50.974;11.330;2023-10-31T02:57:28;12.40;99.90
17815;DHT22;9031;50.974;11.330;2023-10-31T02:59:53;12.40;99.90
17815;DHT22;9031;50.974;11.330;2023-10-31T03:02:19;12.30;99.90
17815;DHT22;9031;50.974;11.330;2023-10-31T03:04:44;12.30;99.90
17815;DHT22;9031;50.974;11.330;2023-10-31T03:07:10;12.40;99.90
17815;DHT22;9031;50.974;11.330;2023-10-31T03:09:35;12.40;99.90
17815;DHT22;9031;50.974;11.330;2023-10-31T03:12:01;12.40;99.90
17815;DHT22;9031;50.974;11.330;2023-10-31T03:14:26;12.50;99.90
17815;DHT22;9031;50.974;11.330;2023-10-31T03:16:52;12.60;99.90
17815;DHT22;9031;50.974;11.330;2023-10-31T03:19:17;12.50;99.90
17815;DHT22;9031;50.974;11.330;2023-10-31T03:21:43;12.60;99.90
17815;DHT22;9031;50.974;11.330;2023-10-31T03:24:08;12.60;99.90
17815;DHT22;9031;50.974;11.330;2023-10-31T03:26:33;12.60;99.90
17815;DHT22;9031;50.974;11.330;2023-10-31T03:28:59;12.60;99.90
17815;DHT22;9031;50.974;11.330;2023-10-31T03:31:25;12.50;99.90
17815;DHT22;9031;50.974;11.330;2023-10-31T03:33:50;12.40;99.90
17815;DHT22;9031;50.974;11.330;2023-10-31T03:36:17;12.30;99.90
17815;DHT22;9031;50.974;11.330;2023-10-31T03:38:43;12.30;99.90
17815;DHT22;9031;50.974;11.330;2023-10-31T03:41:08;12.30;99.90
17815;DHT22;9031;50.974;11.330;2023-10-31T03:43:34;12.20;99.90
17815;DHT22;9031;50.974;11.330;2023-10-31T03:45:59;12.20;99.90
17815;DHT22;9031;50.974;11.330;2023-10-31T03:48:25;12.20;99.90
17815;DHT22;9031;50.974;11.330;2023-10-31T03:50:51;12.20;99.90
17815;DHT22;9031;50.974;11.330;2023-10-31T03:53:16;12.20;99.90
17815;DHT22;9031;50.974;11.330;2023-10-31T03:55:42;12.20;99.90
17815;DHT22;9031;50.974;11.330;2023-10-31T03:58:07;12.10;99.90
17815;DHT22;9031;50.974;11.330;2023-10-31T04:00:33;12.10;99.90
17815;DHT22;9031;50.974;11.330;2023-10-31T04:02:58;12.20;99.90
17815;DHT22;9031;50.974;11.330;2023-10-31T04:05:24;12.20;99.90
17815;DHT22;9031;50.974;11.330;2023-10-31T04:07:49;12.20;99.90
17815;DHT22;9031;50.974;11.330;2023-10-31T04:10:16;12.20;99.90
17815;DHT22;9031;50.974;11.330;2023-10-31T04:12:41;12.20;99.90
17815;DHT22;9031;50.974;11.330;2023-10-31T04:15:08;12.20;99.90
17815;DHT22;9031;50.974;11.330;2023-10-31T04:17:33;12.10;99.90
17815;DHT22;9031;50.974;11.330;2023-10-31T04:19:59;12.10;99.90
17815;DHT22;9031;50.974;11.330;2023-10-31T04:22:24;12.10;99.90
17815;DHT22;9031;50.974;11.330;2023-10-31T04:24:50;12.10;99.90
17815;DHT22;9031;50.974;11.330;2023-10-31T04:27:15;12.10;99.90
17815;DHT22;9031;50.974;11.330;2023-10-31T04:29:41;12.10;99.90
17815;DHT22;9031;50.974;11.330;2023-10-31T04:32:06;12.00;99.90
17815;DHT22;9031;50.974;11.330;2023-10-31T04:34:33;12.00;99.90
17815;DHT22;9031;50.974;11.330;2023-10-31T04:36:58;12.00;99.90
17815;DHT22;9031;50.974;11.330;2023-10-31T04:39:24;12.00;99.90
17815;DHT22;9031;50.974;11.330;2023-10-31T04:41:49;12.10;99.90
17815;DHT22;9031;50.974;11.330;2023-10-31T04:44:15;12.10;99.90
17815;DHT22;9031;50.974;11.330;2023-10-31T04:46:42;12.10;99.90
17815;DHT22;9031;50.974;11.330;2023-10-31T04:49:07;12.10;99.90
17815;DHT22;9031;50.974;11.330;2023-10-31T04:51:36;12.10;99.90
17815;DHT22;9031;50.974;11.330;2023-10-31T04:54:03;12.00;99.90
17815;DHT22;9031;50.974;11.330;2023-10-31T04:56:28;12.00;99.90
17815;DHT22;9031;50.974;11.330;2023-10-31T04:58:54;12.00;99.90
17815;DHT22;9031;50.974;11.330;2023-10-31T05:01:19;11.90;99.90
17815;DHT22;9031;50.974;11.330;2023-10-31T05:03:45;11.90;99.90
17815;DHT22;9031;50.974;11.330;2023-10-31T05:06:10;11.80;99.90
17815;DHT22;9031;50.974;11.330;2023-10-31T05:08:36;11.80;99.90
17815;DHT22;9031;50.974;11.330;2023-10-31T05:11:02;11.80;99.90
17815;DHT22;9031;50.974;11.330;2023-10-31T05:13:27;11.70;99.90
17815;DHT22;9031;50.974;11.330;2023-10-31T05:15:53;11.70;99.90
17815;DHT22;9031;50.974;11.330;2023-10-31T05:18:18;11.60;99.90
17815;DHT22;9031;50.974;11.330;2023-10-31T05:20:44;11.60;99.90
17815;DHT22;9031;50.974;11.330;2023-10-31T05:23:10;11.50;99.90
17815;DHT22;9031;50.974;11.330;2023-10-31T05:25:35;11.50;99.90
17815;DHT22;9031;50.974;11.330;2023-10-31T05:28:01;11.50;99.90
17815;DHT22;9031;50.974;11.330;2023-10-31T05:30:27;11.50;99.90
17815;DHT22;9031;50.974;11.330;2023-10-31T05:32:52;11.50;99.90
17815;DHT22;9031;50.974;11.330;2023-10-31T05:35:18;11.50;99.90
17815;DHT22;9031;50.974;11.330;2023-10-31T05:37:46;11.50;99.90
17815;DHT22;9031;50.974;11.330;2023-10-31T05:40:12;11.50;99.90
17815;DHT22;9031;50.974;11.330;2023-10-31T05:42:38;11.50;99.90
17815;DHT22;9031;50.974;11.330;2023-10-31T05:45:04;11.50;99.90
17815;DHT22;9031;50.974;11.330;2023-10-31T05:47:30;11.40;99.90
17815;DHT22;9031;50.974;11.330;2023-10-31T05:49:55;11.40;99.90
17815;DHT22;9031;50.974;11.330;2023-10-31T05:52:21;11.40;99.90
17815;DHT22;9031;50.974;11.330;2023-10-31T05:54:46;11.30;99.90
17815;DHT22;9031;50.974;11.330;2023-10-31T05:57:12;11.20;99.90
17815;DHT22;9031;50.974;11.330;2023-10-31T05:59:37;11.20;99.90
17815;DHT22;9031;50.974;11.330;2023-10-31T06:02:03;11.20;99.90
17815;DHT22;9031;50.974;11.330;2023-10-31T06:04:28;11.10;99.90
17815;DHT22;9031;50.974;11.330;2023-10-31T06:06:54;11.10;99.90
17815;DHT22;9031;50.974;11.330;2023-10-31T06:09:19;11.10;99.90
17815;DHT22;9031;50.974;11.330;2023-10-31T06:11:45;11.10;99.90
17815;DHT22;9031;50.974;11.330;2023-10-31T06:14:11;11.10;99.90
17815;DHT22;9031;50.974;11.330;2023-10-31T06:16:40;11.10;99.90
17815;DHT22;9031;50.974;11.330;2023-10-31T06:19:06;11.10;99.90
17815;DHT22;9031;50.974;11.330;2023-10-31T06:21:32;11.10;99.90
17815;DHT22;9031;50.974;11.330;2023-10-31T06:23:57;11.20;99.90
17815;DHT22;9031;50.974;11.330;2023-10-31T06:26:23;11.20;99.90
17815;DHT22;9031;50.974;11.330;2023-10-31T06:28:48;11.30;99.90
17815;DHT22;9031;50.974;11.330;2023-10-31T06:31:14;11.30;99.90
17815;DHT22;9031;50.974;11.330;2023-10-31T06:33:40;11.20;99.90
17815;DHT22;9031;50.974;11.330;2023-10-31T06:36:06;11.30;99.90
17815;DHT22;9031;50.974;11.330;2023-10-31T06:38:32;11.30;99.90
17815;DHT22;9031;50.974;11.330;2023-10-31T06:40:57;11.30;99.90
17815;DHT22;9031;50.974;11.330;2023-10-31T06:43:23;11.40;99.90
17815;DHT22;9031;50.974;11.330;2023-10-31T06:45:48;11.40;99.90
17815;DHT22;9031;50.974;11.330;2023-10-31T06:48:14;11.40;99.90
17815;DHT22;9031;50.974;11.330;2023-10-31T06:50:39;11.40;99.90
17815;DHT22;9031;50.974;11.330;2023-10-31T06:53:05;11.40;99.90
17815;DHT22;9031;50.974;11.330;2023-10-31T06:55:30;11.40;99.90
17815;DHT22;9031;50.974;11.330;2023-10-31T06:57:56;11.40;99.90
17815;DHT22;9031;50.974;11.330;2023-10-31T07:00:21;11.40;99.90
17815;DHT22;9031;50.974;11.330;2023-10-31T07:02:47;11.40;99.90
17815;DHT22;9031;50.974;11.330;2023-10-31T07:05:13;11.30;99.90
17815;DHT22;9031;50.974;11.330;2023-10-31T07:07:39;11.30;99.90
17815;DHT22;9031;50.974;11.330;2023-10-31T07:10:05;11.30;99.90
17815;DHT22;9031;50.974;11.330;2023-10-31T07:12:31;11.40;99.90
17815;DHT22;9031;50.974;11.330;2023-10-31T07:14:56;11.50;99.90
17815;DHT22;9031;50.974;11.330;2023-10-31T07:17:24;11.50;99.90
17815;DHT22;9031;50.974;11.330;2023-10-31T07:19:49;11.60;99.90
17815;DHT22;9031;50.974;11.330;2023-10-31T07:22:15;11.50;99.90
17815;DHT22;9031;50.974;11.330;2023-10-31T07:24:40;11.60;99.90
17815;DHT22;9031;50.974;11.330;2023-10-31T07:27:06;11.60;99.90
17815;DHT22;9031;50.974;11.330;2023-10-31T07:29:32;11.70;99.90
17815;DHT22;9031;50.974;11.330;2023-10-31T07:31:57;11.60;99.90
17815;DHT22;9031;50.974;11.330;2023-10-31T07:34:23;11.60;99.90
17815;DHT22;9031;50.974;11.330;2023-10-31T07:36:48;11.60;99.90
17815;DHT22;9031;50.974;11.330;2023-10-31T07:39:13;11.60;99.90
17815;DHT22;9031;50.974;11.330;2023-10-31T07:41:39;11.60;99.90
17815;DHT22;9031;50.974;11.330;2023-10-31T07:44:06;11.60;99.90
17815;DHT22;9031;50.974;11.330;2023-10-31T07:46:31;11.60;99.90
17815;DHT22;9031;50.974;11.330;2023-10-31T07:48:57;11.70;99.90
17815;DHT22;9031;50.974;11.330;2023-10-31T07:51:23;11.80;99.90
17815;DHT22;9031;50.974;11.330;2023-10-31T07:53:48;11.90;99.90
17815;DHT22;9031;50.974;11.330;2023-10-31T07:56:17;11.90;99.90
17815;DHT22;9031;50.974;11.330;2023-10-31T07:58:43;11.90;99.90
17815;DHT22;9031;50.974;11.330;2023-10-31T08:01:09;11.80;99.90
17815;DHT22;9031;50.974;11.330;2023-10-31T08:03:36;11.80;99.90
17815;DHT22;9031;50.974;11.330;2023-10-31T08:06:03;11.90;99.90
17815;DHT22;9031;50.974;11.330;2023-10-31T08:08:29;11.90;99.90
17815;DHT22;9031;50.974;11.330;2023-10-31T08:10:55;11.80;99.90
17815;DHT22;9031;50.974;11.330;2023-10-31T08:13:22;11.90;99.90
17815;DHT22;9031;50.974;11.330;2023-10-31T08:15:47;11.80;99.90
17815;DHT22;9031;50.974;11.330;2023-10-31T08:18:13;11.70;99.90
17815;DHT22;9031;50.974;11.330;2023-10-31T08:20:38;11.80;99.90
17815;DHT22;9031;50.974;11.330;2023-10-31T08:23:04;11.90;99.90
17815;DHT22;9031;50.974;11.330;2023-10-31T08:25:30;12.10;99.90
17815;DHT22;9031;50.974;11.330;2023-10-31T08:27:56;12.00;99.90
17815;DHT22;9031;50.974;11.330;2023-10-31T08:30:22;12.00;99.90
17815;DHT22;9031;50.974;11.330;2023-10-31T08:32:47;11.90;99.90
17815;DHT22;9031;50.974;11.330;2023-10-31T08:35:13;11.90;99.90
17815;DHT22;9031;50.974;11.330;2023-10-31T08:37:38;11.70;99.90
17815;DHT22;9031;50.974;11.330;2023-10-31T08:40:05;11.60;99.90
17815;DHT22;9031;50.974;11.330;2023-10-31T08:42:30;11.70;99.90
17815;DHT22;9031;50.974;11.330;2023-10-31T08:44:56;11.80;99.90
17815;DHT22;9031;50.974;11.330;2023-10-31T08:47:21;12.10;99.90
17815;DHT22;9031;50.974;11.330;2023-10-31T08:49:48;12.20;99.90
17815;DHT22;9031;50.974;11.330;2023-10-31T08:52:14;12.20;99.90
17815;DHT22;9031;50.974;11.330;2023-10-31T08:54:39;12.30;99.90
17815;DHT22;9031;50.974;11.330;2023-10-31T08:57:05;12.20;99.90
17815;DHT22;9031;50.974;11.330;2023-10-31T08:59:30;12.30;99.90
17815;DHT22;9031;50.974;11.330;2023-10-31T09:01:55;12.20;99.90
17815;DHT22;9031;50.974;11.330;2023-10-31T09:04:21;12.00;99.90
17815;DHT22;9031;50.974;11.330;2023-10-31T09:06:47;12.00;99.90
17815;DHT22;9031;50.974;11.330;2023-10-31T09:09:13;12.10;99.90
17815;DHT22;9031;50.974;11.330;2023-10-31T09:11:38;12.30;99.90
17815;DHT22;9031;50.974;11.330;2023-10-31T09:14:04;13.00;99.90
17815;DHT22;9031;50.974;11.330;2023-10-31T09:16:29;13.60;99.90
17815;DHT22;9031;50.974;11.330;2023-10-31T09:18:55;13.70;99.90
17815;DHT22;9031;50.974;11.330;2023-10-31T09:21:20;13.50;99.90
17815;DHT22;9031;50.974;11.330;2023-10-31T09:23:47;13.30;99.90
17815;DHT22;9031;50.974;11.330;2023-10-31T09:26:12;13.10;99.90
17815;DHT22;9031;50.974;11.330;2023-10-31T09:28:38;14.70;99.90
17815;DHT22;9031;50.974;11.330;2023-10-31T09:31:04;15.50;99.90
17815;DHT22;9031;50.974;11.330;2023-10-31T09:33:30;15.40;99.90
17815;DHT22;9031;50.974;11.330;2023-10-31T09:35:55;15.70;99.90
17815;DHT22;9031;50.974;11.330;2023-10-31T09:38:21;16.00;99.90
17815;DHT22;9031;50.974;11.330;2023-10-31T09:40:46;16.00;99.90
17815;DHT22;9031;50.974;11.330;2023-10-31T09:43:12;17.10;99.90
17815;DHT22;9031;50.974;11.330;2023-10-31T09:45:37;18.90;99.90
17815;DHT22;9031;50.974;11.330;2023-10-31T09:48:03;19.30;99.90
17815;DHT22;9031;50.974;11.330;2023-10-31T09:50:30;18.70;99.90
17815;DHT22;9031;50.974;11.330;2023-10-31T09:52:56;18.10;99.90
17815;DHT22;9031;50.974;11.330;2023-10-31T09:55:22;17.90;99.90
17815;DHT22;9031;50.974;11.330;2023-10-31T09:57:47;17.30;99.90
17815;DHT22;9031;50.974;11.330;2023-10-31T10:00:13;17.40;99.90
17815;DHT22;9031;50.974;11.330;2023-10-31T10:02:39;15.70;99.90
17815;DHT22;9031;50.974;11.330;2023-10-31T10:05:05;16.30;99.90
17815;DHT22;9031;50.974;11.330;2023-10-31T10:07:33;16.00;99.90
17815;DHT22;9031;50.974;11.330;2023-10-31T10:09:59;15.00;99.90
17815;DHT22;9031;50.974;11.330;2023-10-31T10:12:26;14.50;99.90
17815;DHT22;9031;50.974;11.330;2023-10-31T10:14:52;15.20;99.90
17815;DHT22;9031;50.974;11.330;2023-10-31T10:17:21;15.90;99.90
17815;DHT22;9031;50.974;11.330;2023-10-31T10:19:47;16.20;99.90
17815;DHT22;9031;50.974;11.330;2023-10-31T10:22:13;15.90;99.90
17815;DHT22;9031;50.974;11.330;2023-10-31T10:24:40;16.10;99.90
17815;DHT22;9031;50.974;11.330;2023-10-31T10:27:07;14.70;99.90
17815;DHT22;9031;50.974;11.330;2023-10-31T10:29:34;13.60;99.90
17815;DHT22;9031;50.974;11.330;2023-10-31T10:31:59;13.10;99.90
17815;DHT22;9031;50.974;11.330;2023-10-31T10:34:24;12.90;99.90
17815;DHT22;9031;50.974;11.330;2023-10-31T10:36:50;12.80;99.90
17815;DHT22;9031;50.974;11.330;2023-10-31T10:39:21;12.80;99.90
17815;DHT22;9031;50.974;11.330;2023-10-31T10:41:53;13.30;99.90
17815;DHT22;9031;50.974;11.330;2023-10-31T10:44:32;13.70;99.90
17815;DHT22;9031;50.974;11.330;2023-10-31T10:46:58;14.20;99.90
17815;DHT22;9031;50.974;11.330;2023-10-31T10:49:27;15.00;99.90
17815;DHT22;9031;50.974;11.330;2023-10-31T10:51:59;15.90;99.90
17815;DHT22;9031;50.974;11.330;2023-10-31T10:57:21;19.60;99.90
17815;DHT22;9031;50.974;11.330;2023-10-31T10:59:50;17.40;99.90
17815;DHT22;9031;50.974;11.330;2023-10-31T11:02:18;16.70;99.90
17815;DHT22;9031;50.974;11.330;2023-10-31T11:04:44;17.10;99.90
17815;DHT22;9031;50.974;11.330;2023-10-31T11:07:10;16.80;99.90
17815;DHT22;9031;50.974;11.330;2023-10-31T11:09:37;16.90;99.90
17815;DHT22;9031;50.974;11.330;2023-10-31T11:12:03;17.10;99.90
17815;DHT22;9031;50.974;11.330;2023-10-31T11:14:30;16.00;99.90
17815;DHT22;9031;50.974;11.330;2023-10-31T11:17:01;15.30;99.90
17815;DHT22;9031;50.974;11.330;2023-10-31T11:19:29;15.10;99.90
17815;DHT22;9031;50.974;11.330;2023-10-31T11:21:59;15.10;99.90
17815;DHT22;9031;50.974;11.330;2023-10-31T11:24:32;14.50;99.90
17815;DHT22;9031;50.974;11.330;2023-10-31T11:27:02;14.10;99.90
17815;DHT22;9031;50.974;11.330;2023-10-31T11:29:33;13.80;99.90
17815;DHT22;9031;50.974;11.330;2023-10-31T11:31:59;13.60;99.90
17815;DHT22;9031;50.974;11.330;2023-10-31T11:34:29;13.30;99.90
17815;DHT22;9031;50.974;11.330;2023-10-31T11:37:24;13.20;99.90
17815;DHT22;9031;50.974;11.330;2023-10-31T11:42:40;12.90;99.90
17815;DHT22;9031;50.974;11.330;2023-10-31T11:45:08;13.00;99.90
17815;DHT22;9031;50.974;11.330;2023-10-31T11:47:49;13.10;99.90
17815;DHT22;9031;50.974;11.330;2023-10-31T11:50:15;13.40;99.90
17815;DHT22;9031;50.974;11.330;2023-10-31T11:52:41;13.90;99.90
17815;DHT22;9031;50.974;11.330;2023-10-31T11:55:11;13.80;99.90
17815;DHT22;9031;50.974;11.330;2023-10-31T11:57:37;13.80;99.90
17815;DHT22;9031;50.974;11.330;2023-10-31T12:00:04;13.60;99.90
17815;DHT22;9031;50.974;11.330;2023-10-31T12:02:30;13.70;99.90
17815;DHT22;9031;50.974;11.330;2023-10-31T12:05:12;13.60;99.90
17815;DHT22;9031;50.974;11.330;2023-10-31T12:07:42;13.80;99.90
17815;DHT22;9031;50.974;11.330;2023-10-31T12:10:08;13.70;99.90
17815;DHT22;9031;50.974;11.330;2023-10-31T12:12:34;13.80;99.90
17815;DHT22;9031;50.974;11.330;2023-10-31T12:15:07;14.50;99.90
17815;DHT22;9031;50.974;11.330;2023-10-31T12:17:37;14.50;99.90
17815;DHT22;9031;50.974;11.330;2023-10-31T12:20:07;15.10;99.90
17815;DHT22;9031;50.974;11.330;2023-10-31T12:22:33;15.40;99.90
17815;DHT22;9031;50.974;11.330;2023-10-31T12:25:09;15.20;99.90
17815;DHT22;9031;50.974;11.330;2023-10-31T12:27:46;15.20;99.90
17815;DHT22;9031;50.974;11.330;2023-10-31T12:30:13;15.10;99.90
17815;DHT22;9031;50.974;11.330;2023-10-31T12:32:42;15.00;99.90
17815;DHT22;9031;50.974;11.330;2023-10-31T12:35:13;14.40;99.90
17815;DHT22;9031;50.974;11.330;2023-10-31T12:37:49;14.20;99.90
17815;DHT22;9031;50.974;11.330;2023-10-31T12:40:21;14.20;99.90
17815;DHT22;9031;50.974;11.330;2023-10-31T12:42:48;13.90;99.90
17815;DHT22;9031;50.974;11.330;2023-10-31T12:45:15;13.60;99.90
17815;DHT22;9031;50.974;11.330;2023-10-31T12:47:42;13.50;99.90
17815;DHT22;9031;50.974;11.330;2023-10-31T12:50:12;13.40;99.90
17815;DHT22;9031;50.974;11.330;2023-10-31T12:52:52;13.40;99.90
17815;DHT22;9031;50.974;11.330;2023-10-31T12:55:22;13.30;99.90
17815;DHT22;9031;50.974;11.330;2023-10-31T12:57:49;13.10;99.90
17815;DHT22;9031;50.974;11.330;2023-10-31T13:00:15;13.00;99.90
17815;DHT22;9031;50.974;11.330;2023-10-31T13:02:42;13.00;99.90
17815;DHT22;9031;50.974;11.330;2023-10-31T13:05:15;13.10;99.90
17815;DHT22;9031;50.974;11.330;2023-10-31T13:07:51;13.10;99.90
17815;DHT22;9031;50.974;11.330;2023-10-31T13:10:18;13.00;99.90
17815;DHT22;9031;50.974;11.330;2023-10-31T13:12:48;13.10;99.90
17815;DHT22;9031;50.974;11.330;2023-10-31T13:15:18;13.10;99.90
17815;DHT22;9031;50.974;11.330;2023-10-31T13:17:44;13.10;99.90
17815;DHT22;9031;50.974;11.330;2023-10-31T13:20:14;13.00;99.90
17815;DHT22;9031;50.974;11.330;2023-10-31T13:22:40;13.00;99.90
17815;DHT22;9031;50.974;11.330;2023-10-31T13:25:11;13.00;99.90
17815;DHT22;9031;50.974;11.330;2023-10-31T13:27:38;13.10;99.90
17815;DHT22;9031;50.974;11.330;2023-10-31T13:30:05;13.20;99.90
17815;DHT22;9031;50.974;11.330;2023-10-31T13:32:31;13.20;99.90
17815;DHT22;9031;50.974;11.330;2023-10-31T13:34:57;13.20;99.90
17815;DHT22;9031;50.974;11.330;2023-10-31T13:37:22;13.10;99.90
17815;DHT22;9031;50.974;11.330;2023-10-31T13:39:48;13.00;99.90
17815;DHT22;9031;50.974;11.330;2023-10-31T13:42:14;12.90;99.90
17815;DHT22;9031;50.974;11.330;2023-10-31T13:44:40;12.90;99.90
17815;DHT22;9031;50.974;11.330;2023-10-31T13:47:05;12.90;99.90
17815;DHT22;9031;50.974;11.330;2023-10-31T13:49:31;12.90;99.90
17815;DHT22;9031;50.974;11.330;2023-10-31T13:51:57;12.80;99.90
17815;DHT22;9031;50.974;11.330;2023-10-31T13:54:22;12.70;99.90
17815;DHT22;9031;50.974;11.330;2023-10-31T13:56:48;12.50;99.90
17815;DHT22;9031;50.974;11.330;2023-10-31T13:59:13;12.40;99.90
17815;DHT22;9031;50.974;11.330;2023-10-31T14:01:40;12.40;99.90
17815;DHT22;9031;50.974;11.330;2023-10-31T14:04:07;12.30;99.90
17815;DHT22;9031;50.974;11.330;2023-10-31T14:06:33;12.20;99.90
17815;DHT22;9031;50.974;11.330;2023-10-31T14:08:59;12.20;99.90
17815;DHT22;9031;50.974;11.330;2023-10-31T14:11:25;12.20;99.90
17815;DHT22;9031;50.974;11.330;2023-10-31T14:13:50;12.20;99.90
17815;DHT22;9031;50.974;11.330;2023-10-31T14:16:16;12.20;99.90
17815;DHT22;9031;50.974;11.330;2023-10-31T14:18:42;12.10;99.90
17815;DHT22;9031;50.974;11.330;2023-10-31T14:21:08;12.20;99.90
17815;DHT22;9031;50.974;11.330;2023-10-31T14:23:34;12.20;99.90
17815;DHT22;9031;50.974;11.330;2023-10-31T14:26:00;12.30;99.90
17815;DHT22;9031;50.974;11.330;2023-10-31T14:28:25;12.30;99.90
17815;DHT22;9031;50.974;11.330;2023-10-31T14:30:51;12.20;99.90
17815;DHT22;9031;50.974;11.330;2023-10-31T14:33:18;12.20;99.90
17815;DHT22;9031;50.974;11.330;2023-10-31T14:35:43;12.20;99.90
17815;DHT22;9031;50.974;11.330;2023-10-31T14:38:09;12.20;99.90
17815;DHT22;9031;50.974;11.330;2023-10-31T14:40:34;12.10;99.90
17815;DHT22;9031;50.974;11.330;2023-10-31T14:43:00;12.00;99.90
17815;DHT22;9031;50.974;11.330;2023-10-31T14:45:25;12.00;99.90
17815;DHT22;9031;50.974;11.330;2023-10-31T14:47:51;12.00;99.90
17815;DHT22;9031;50.974;11.330;2023-10-31T14:50:18;12.00;99.90
17815;DHT22;9031;50.974;11.330;2023-10-31T14:52:45;12.00;99.90
17815;DHT22;9031;50.974;11.330;2023-10-31T14:55:11;12.00;99.90
17815;DHT22;9031;50.974;11.330;2023-10-31T14:57:37;12.00;99.90
17815;DHT22;9031;50.974;11.330;2023-10-31T15:00:03;12.00;99.90
17815;DHT22;9031;50.974;11.330;2023-10-31T15:02:29;12.00;99.90
17815;DHT22;9031;50.974;11.330;2023-10-31T15:04:54;12.00;99.90
17815;DHT22;9031;50.974;11.330;2023-10-31T15:07:20;12.00;99.90
17815;DHT22;9031;50.974;11.330;2023-10-31T15:09:46;12.00;99.90
17815;DHT22;9031;50.974;11.330;2023-10-31T15:12:13;12.00;99.90
17815;DHT22;9031;50.974;11.330;2023-10-31T15:14:39;12.00;99.90
17815;DHT22;9031;50.974;11.330;2023-10-31T15:17:04;12.00;99.90
17815;DHT22;9031;50.974;11.330;2023-10-31T15:19:30;12.00;99.90
17815;DHT22;9031;50.974;11.330;2023-10-31T15:21:55;12.00;99.90
17815;DHT22;9031;50.974;11.330;2023-10-31T15:24:20;11.90;99.90
17815;DHT22;9031;50.974;11.330;2023-10-31T15:26:46;12.00;99.90
17815;DHT22;9031;50.974;11.330;2023-10-31T15:29:11;12.00;99.90